sensor_id;sensor_type;location;lat;lon;timestamp;pressure;altitude;pressure_sealevel;temperature;humidity
13486;BME280;6815;59.336;17.998;2023-02-22T00:00:49;52167.00;;;-145.37;70.72
13486;BME280;6815;59.336;17.998;2023-02-22T00:03:24;52169.00;;;-145.37;70.53
13486;BME280;6815;59.336;17.998;2023-02-22T00:05:54;52192.97;;;-145.37;70.03
13486;BME280;6815;59.336;17.998;2023-02-22T00:08:21;52167.00;;;-145.37;70.66
13486;BME280;6815;59.336;17.998;2023-02-22T00:10:47;52192.97;;;-145.37;70.15
13486;BME280;6815;59.336;17.998;2023-02-22T00:13:18;52182.97;;;-145.37;69.92
13486;BME280;6815;59.336;17.998;2023-02-22T00:15:44;52182.97;;;-145.37;69.94
13486;BME280;6815;59.336;17.998;2023-02-22T00:18:15;52182.97;;;-145.37;69.20
13486;BME280;6815;59.336;17.998;2023-02-22T00:20:41;52210.91;;;-145.37;70.07
13486;BME280;6815;59.336;17.998;2023-02-22T00:23:12;52167.00;;;-145.37;70.06
13486;BME280;6815;59.336;17.998;2023-02-22T00:25:38;52194.94;;;-145.37;70.04
13486;BME280;6815;59.336;17.998;2023-02-22T00:28:04;52216.91;;;-145.37;69.49
13486;BME280;6815;59.336;17.998;2023-02-22T00:30:30;52214.91;;;-145.37;69.91
13486;BME280;6815;59.336;17.998;2023-02-22T00:32:57;52206.94;;;-145.37;69.38
13486;BME280;6815;59.336;17.998;2023-02-22T00:35:28;52157.03;;;-145.37;68.77
13486;BME280;6815;59.336;17.998;2023-02-22T00:37:56;52182.97;;;-145.37;70.04
13486;BME280;6815;59.336;17.998;2023-02-22T00:40:28;52212.91;;;-145.37;70.02
13486;BME280;6815;59.336;17.998;2023-02-22T00:42:58;52173.00;;;-145.37;69.21
13486;BME280;6815;59.336;17.998;2023-02-22T00:45:26;52214.91;;;-145.37;69.27
13486;BME280;6815;59.336;17.998;2023-02-22T00:47:52;52163.00;;;-145.37;69.34
13486;BME280;6815;59.336;17.998;2023-02-22T00:50:21;52208.94;;;-145.37;68.94
13486;BME280;6815;59.336;17.998;2023-02-22T00:52:47;52196.94;;;-145.37;68.88
13486;BME280;6815;59.336;17.998;2023-02-22T00:55:24;52224.91;;;-145.37;68.77
13486;BME280;6815;59.336;17.998;2023-02-22T00:57:50;52173.00;;;-145.37;69.18
13486;BME280;6815;59.336;17.998;2023-02-22T01:00:20;52206.94;;;-145.37;68.95
13486;BME280;6815;59.336;17.998;2023-02-22T01:02:46;52194.94;;;-145.37;68.92
13486;BME280;6815;59.336;17.998;2023-02-22T01:05:16;52204.94;;;-145.37;68.32
13486;BME280;6815;59.336;17.998;2023-02-22T01:07:43;52212.91;;;-145.37;68.46
13486;BME280;6815;59.336;17.998;2023-02-22T01:10:10;52171.00;;;-145.37;68.74
13486;BME280;6815;59.336;17.998;2023-02-22T01:12:35;52186.97;;;-145.37;68.66
13486;BME280;6815;59.336;17.998;2023-02-22T01:15:06;52184.97;;;-145.37;68.37
13486;BME280;6815;59.336;17.998;2023-02-22T01:17:35;52145.03;;;-145.37;68.50
13486;BME280;6815;59.336;17.998;2023-02-22T01:20:01;52196.94;;;-145.37;69.10
13486;BME280;6815;59.336;17.998;2023-02-22T01:22:28;52222.91;;;-145.37;69.22
13486;BME280;6815;59.336;17.998;2023-02-22T01:24:54;52165.00;;;-145.37;69.40
13486;BME280;6815;59.336;17.998;2023-02-22T01:27:19;52206.94;;;-145.37;69.35
13486;BME280;6815;59.336;17.998;2023-02-22T01:29:48;52184.97;;;-145.37;69.51
13486;BME280;6815;59.336;17.998;2023-02-22T01:32:14;52226.91;;;-145.37;69.28
13486;BME280;6815;59.336;17.998;2023-02-22T01:34:40;52192.97;;;-145.37;69.21
13486;BME280;6815;59.336;17.998;2023-02-22T01:37:05;52208.94;;;-145.37;69.67
13486;BME280;6815;59.336;17.998;2023-02-22T01:39:31;52184.97;;;-145.37;69.53
13486;BME280;6815;59.336;17.998;2023-02-22T01:41:57;52232.88;;;-145.37;70.49
13486;BME280;6815;59.336;17.998;2023-02-22T01:44:33;52202.94;;;-145.37;69.78
13486;BME280;6815;59.336;17.998;2023-02-22T01:47:01;52175.00;;;-145.37;69.85
13486;BME280;6815;59.336;17.998;2023-02-22T01:49:35;52184.97;;;-145.37;70.07
13486;BME280;6815;59.336;17.998;2023-02-22T01:52:06;52210.91;;;-145.37;69.81
13486;BME280;6815;59.336;17.998;2023-02-22T01:54:42;52186.97;;;-145.37;70.03
13486;BME280;6815;59.336;17.998;2023-02-22T01:57:43;52220.91;;;-145.37;70.17
13486;BME280;6815;59.336;17.998;2023-02-22T02:00:08;52190.97;;;-145.37;70.52
13486;BME280;6815;59.336;17.998;2023-02-22T02:02:41;52224.91;;;-145.37;70.09
13486;BME280;6815;59.336;17.998;2023-02-22T02:05:07;52184.97;;;-145.37;69.93
13486;BME280;6815;59.336;17.998;2023-02-22T02:07:35;52206.94;;;-145.37;70.47
13486;BME280;6815;59.336;17.998;2023-02-22T02:10:07;52196.94;;;-145.37;70.67
13486;BME280;6815;59.336;17.998;2023-02-22T02:12:40;52182.97;;;-145.37;70.25
13486;BME280;6815;59.336;17.998;2023-02-22T02:15:27;52214.91;;;-145.37;70.17
13486;BME280;6815;59.336;17.998;2023-02-22T02:17:58;52190.97;;;-145.37;70.30
13486;BME280;6815;59.336;17.998;2023-02-22T02:29:48;52208.94;;;-145.37;71.16
13486;BME280;6815;59.336;17.998;2023-02-22T02:33:01;52182.97;;;-145.37;70.43
13486;BME280;6815;59.336;17.998;2023-02-22T02:35:31;52180.97;;;-145.37;70.97
13486;BME280;6815;59.336;17.998;2023-02-22T02:40:52;52204.94;;;-145.37;71.27
13486;BME280;6815;59.336;17.998;2023-02-22T02:46:00;52198.94;;;-145.37;70.37
13486;BME280;6815;59.336;17.998;2023-02-22T02:48:29;52232.88;;;-145.37;71.03
13486;BME280;6815;59.336;17.998;2023-02-22T02:51:00;52165.00;;;-145.37;71.30
13486;BME280;6815;59.336;17.998;2023-02-22T02:53:39;52200.94;;;-145.37;70.85
13486;BME280;6815;59.336;17.998;2023-02-22T02:56:06;52202.94;;;-145.37;70.47
13486;BME280;6815;59.336;17.998;2023-02-22T02:58:43;52194.94;;;-145.37;70.27
13486;BME280;6815;59.336;17.998;2023-02-22T03:01:12;52182.97;;;-145.37;70.79
13486;BME280;6815;59.336;17.998;2023-02-22T03:03:54;52180.97;;;-145.37;70.60
13486;BME280;6815;59.336;17.998;2023-02-22T03:06:56;52163.00;;;-145.37;71.39
13486;BME280;6815;59.336;17.998;2023-02-22T03:15:11;52204.94;;;-145.37;71.13
13486;BME280;6815;59.336;17.998;2023-02-22T03:17:53;52175.00;;;-145.37;71.58
13486;BME280;6815;59.336;17.998;2023-02-22T03:20:45;52188.97;;;-145.37;71.60
13486;BME280;6815;59.336;17.998;2023-02-22T03:24:16;52202.94;;;-145.37;71.52
13486;BME280;6815;59.336;17.998;2023-02-22T03:26:21;52206.94;;;-145.37;72.26
13486;BME280;6815;59.336;17.998;2023-02-22T03:28:51;52200.94;;;-145.37;71.69
13486;BME280;6815;59.336;17.998;2023-02-22T03:31:28;52226.91;;;-145.37;72.01
13486;BME280;6815;59.336;17.998;2023-02-22T03:34:05;52212.91;;;-145.37;72.16
13486;BME280;6815;59.336;17.998;2023-02-22T03:36:35;52224.91;;;-145.37;72.25
13486;BME280;6815;59.336;17.998;2023-02-22T03:39:08;52180.97;;;-145.37;72.66
13486;BME280;6815;59.336;17.998;2023-02-22T03:41:38;52180.97;;;-145.37;72.37
13486;BME280;6815;59.336;17.998;2023-02-22T03:44:11;52188.97;;;-145.37;72.66
13486;BME280;6815;59.336;17.998;2023-02-22T03:46:39;52180.97;;;-145.37;72.81
13486;BME280;6815;59.336;17.998;2023-02-22T03:49:16;52196.94;;;-145.37;72.51
13486;BME280;6815;59.336;17.998;2023-02-22T03:51:45;52186.97;;;-145.37;72.78
13486;BME280;6815;59.336;17.998;2023-02-22T03:54:11;52208.94;;;-145.37;72.75
13486;BME280;6815;59.336;17.998;2023-02-22T03:56:49;52194.94;;;-145.37;72.95
13486;BME280;6815;59.336;17.998;2023-02-22T03:59:18;52224.91;;;-145.37;72.59
13486;BME280;6815;59.336;17.998;2023-02-22T04:01:48;52186.97;;;-145.37;72.66
13486;BME280;6815;59.336;17.998;2023-02-22T04:04:15;52190.97;;;-145.37;72.80
13486;BME280;6815;59.336;17.998;2023-02-22T04:06:43;52177.00;;;-145.37;72.79
13486;BME280;6815;59.336;17.998;2023-02-22T04:09:08;52186.97;;;-145.37;72.89
13486;BME280;6815;59.336;17.998;2023-02-22T04:11:34;52216.91;;;-145.37;72.86
13486;BME280;6815;59.336;17.998;2023-02-22T04:14:01;52186.97;;;-145.37;72.34
13486;BME280;6815;59.336;17.998;2023-02-22T04:16:27;52206.94;;;-145.37;72.39
13486;BME280;6815;59.336;17.998;2023-02-22T04:18:54;52244.84;;;-145.37;72.48
13486;BME280;6815;59.336;17.998;2023-02-22T04:21:19;52208.94;;;-145.37;72.76
13486;BME280;6815;59.336;17.998;2023-02-22T04:23:44;52177.00;;;-145.37;72.78
13486;BME280;6815;59.336;17.998;2023-02-22T04:26:10;52186.97;;;-145.37;72.75
13486;BME280;6815;59.336;17.998;2023-02-22T04:28:37;52204.94;;;-145.37;73.24
13486;BME280;6815;59.336;17.998;2023-02-22T04:31:04;52186.97;;;-145.37;73.34
13486;BME280;6815;59.336;17.998;2023-02-22T04:33:29;52149.03;;;-145.37;73.73
13486;BME280;6815;59.336;17.998;2023-02-22T04:35:55;52216.91;;;-145.37;73.57
13486;BME280;6815;59.336;17.998;2023-02-22T04:38:22;52188.97;;;-145.37;73.36
13486;BME280;6815;59.336;17.998;2023-02-22T04:40:50;52173.00;;;-145.37;73.44
13486;BME280;6815;59.336;17.998;2023-02-22T04:43:16;52202.94;;;-145.37;73.64
13486;BME280;6815;59.336;17.998;2023-02-22T04:45:42;52202.94;;;-145.37;74.05
13486;BME280;6815;59.336;17.998;2023-02-22T04:48:08;52214.91;;;-145.37;74.13
13486;BME280;6815;59.336;17.998;2023-02-22T04:50:34;52202.94;;;-145.37;74.17
13486;BME280;6815;59.336;17.998;2023-02-22T04:52:59;52204.94;;;-145.37;74.68
13486;BME280;6815;59.336;17.998;2023-02-22T04:55:25;52198.94;;;-145.37;74.85
13486;BME280;6815;59.336;17.998;2023-02-22T04:57:53;52153.03;;;-145.37;74.16
13486;BME280;6815;59.336;17.998;2023-02-22T05:00:19;52173.00;;;-145.37;75.21
13486;BME280;6815;59.336;17.998;2023-02-22T05:02:46;52204.94;;;-145.37;75.01
13486;BME280;6815;59.336;17.998;2023-02-22T05:05:13;52151.03;;;-145.37;75.82
13486;BME280;6815;59.336;17.998;2023-02-22T05:07:39;52214.91;;;-145.37;75.38
13486;BME280;6815;59.336;17.998;2023-02-22T05:10:05;52169.00;;;-145.37;75.33
13486;BME280;6815;59.336;17.998;2023-02-22T05:12:30;52198.94;;;-145.37;76.09
13486;BME280;6815;59.336;17.998;2023-02-22T05:14:55;52169.00;;;-145.37;76.38
13486;BME280;6815;59.336;17.998;2023-02-22T05:17:21;52224.91;;;-145.37;76.25
13486;BME280;6815;59.336;17.998;2023-02-22T05:19:46;52202.94;;;-145.37;76.22
13486;BME280;6815;59.336;17.998;2023-02-22T05:22:12;52145.03;;;-145.37;76.55
13486;BME280;6815;59.336;17.998;2023-02-22T05:24:37;52192.97;;;-145.37;76.40
13486;BME280;6815;59.336;17.998;2023-02-22T05:27:03;52210.91;;;-145.37;76.95
13486;BME280;6815;59.336;17.998;2023-02-22T05:29:28;52184.97;;;-145.37;77.27
13486;BME280;6815;59.336;17.998;2023-02-22T05:31:55;52220.91;;;-145.37;77.28
13486;BME280;6815;59.336;17.998;2023-02-22T05:34:22;52198.94;;;-145.37;77.83
13486;BME280;6815;59.336;17.998;2023-02-22T05:36:48;52194.94;;;-145.37;77.65
13486;BME280;6815;59.336;17.998;2023-02-22T05:39:13;52238.88;;;-145.37;77.42
13486;BME280;6815;59.336;17.998;2023-02-22T05:41:39;52171.00;;;-145.37;77.65
13486;BME280;6815;59.336;17.998;2023-02-22T05:44:04;52171.00;;;-145.37;77.40
13486;BME280;6815;59.336;17.998;2023-02-22T05:46:29;52169.00;;;-145.37;77.25
13486;BME280;6815;59.336;17.998;2023-02-22T05:48:55;52182.97;;;-145.37;77.39
13486;BME280;6815;59.336;17.998;2023-02-22T05:51:21;52186.97;;;-145.37;78.22
13486;BME280;6815;59.336;17.998;2023-02-22T05:53:47;52210.91;;;-145.37;77.88
13486;BME280;6815;59.336;17.998;2023-02-22T05:56:20;52161.03;;;-145.37;77.56
13486;BME280;6815;59.336;17.998;2023-02-22T05:58:46;52208.94;;;-145.37;78.45
13486;BME280;6815;59.336;17.998;2023-02-22T06:01:11;52216.91;;;-145.37;78.32
13486;BME280;6815;59.336;17.998;2023-02-22T06:03:36;52167.00;;;-145.37;78.12
13486;BME280;6815;59.336;17.998;2023-02-22T06:06:02;52190.97;;;-145.37;78.33
13486;BME280;6815;59.336;17.998;2023-02-22T06:08:29;52149.03;;;-145.37;78.16
13486;BME280;6815;59.336;17.998;2023-02-22T06:10:55;52169.00;;;-145.37;77.79
13486;BME280;6815;59.336;17.998;2023-02-22T06:13:20;52173.00;;;-145.37;77.45
13486;BME280;6815;59.336;17.998;2023-02-22T06:15:46;52190.97;;;-145.37;78.13
13486;BME280;6815;59.336;17.998;2023-02-22T06:18:11;52157.03;;;-145.37;77.56
13486;BME280;6815;59.336;17.998;2023-02-22T06:20:37;52202.94;;;-145.37;78.20
13486;BME280;6815;59.336;17.998;2023-02-22T06:23:02;52161.03;;;-145.37;78.67
13486;BME280;6815;59.336;17.998;2023-02-22T06:25:29;52206.94;;;-145.37;78.19
13486;BME280;6815;59.336;17.998;2023-02-22T06:27:59;52198.94;;;-145.37;77.94
13486;BME280;6815;59.336;17.998;2023-02-22T06:30:26;52210.91;;;-145.37;77.67
13486;BME280;6815;59.336;17.998;2023-02-22T06:32:55;52171.00;;;-145.37;77.83
13486;BME280;6815;59.336;17.998;2023-02-22T06:35:20;52192.97;;;-145.37;78.14
13486;BME280;6815;59.336;17.998;2023-02-22T06:37:46;52216.91;;;-145.37;77.52
13486;BME280;6815;59.336;17.998;2023-02-22T06:40:13;52238.88;;;-145.37;77.53
13486;BME280;6815;59.336;17.998;2023-02-22T06:42:39;52178.97;;;-145.37;77.79
13486;BME280;6815;59.336;17.998;2023-02-22T06:45:05;52182.97;;;-145.37;78.17
13486;BME280;6815;59.336;17.998;2023-02-22T06:47:32;52228.88;;;-145.37;77.94
13486;BME280;6815;59.336;17.998;2023-02-22T06:49:59;52184.97;;;-145.37;77.89
13486;BME280;6815;59.336;17.998;2023-02-22T06:52:25;52210.91;;;-145.37;77.67
13486;BME280;6815;59.336;17.998;2023-02-22T06:54:51;52184.97;;;-145.37;78.18
13486;BME280;6815;59.336;17.998;2023-02-22T06:57:17;52198.94;;;-145.37;78.09
13486;BME280;6815;59.336;17.998;2023-02-22T06:59:42;52230.88;;;-145.37;78.21
13486;BME280;6815;59.336;17.998;2023-02-22T07:02:11;52163.00;;;-145.37;77.32
13486;BME280;6815;59.336;17.998;2023-02-22T07:04:37;52182.97;;;-145.37;77.46
13486;BME280;6815;59.336;17.998;2023-02-22T07:07:03;52184.97;;;-145.37;75.89
13486;BME280;6815;59.336;17.998;2023-02-22T07:09:29;52202.94;;;-145.37;76.21
13486;BME280;6815;59.336;17.998;2023-02-22T07:11:54;52178.97;;;-145.37;75.83
13486;BME280;6815;59.336;17.998;2023-02-22T07:14:20;52173.00;;;-145.37;75.40
13486;BME280;6815;59.336;17.998;2023-02-22T07:16:45;52220.91;;;-145.37;75.49
13486;BME280;6815;59.336;17.998;2023-02-22T07:19:11;52198.94;;;-145.37;74.79
13486;BME280;6815;59.336;17.998;2023-02-22T07:21:36;52198.94;;;-145.37;74.65
13486;BME280;6815;59.336;17.998;2023-02-22T07:24:02;52200.94;;;-145.37;74.41
13486;BME280;6815;59.336;17.998;2023-02-22T07:26:27;52198.94;;;-145.37;73.31
13486;BME280;6815;59.336;17.998;2023-02-22T07:28:53;52196.94;;;-145.37;72.84
13486;BME280;6815;59.336;17.998;2023-02-22T07:31:18;52228.88;;;-145.37;72.42
13486;BME280;6815;59.336;17.998;2023-02-22T07:33:48;52218.91;;;-145.37;71.81
13486;BME280;6815;59.336;17.998;2023-02-22T07:36:13;52248.84;;;-145.37;72.06
13486;BME280;6815;59.336;17.998;2023-02-22T07:38:42;52204.94;;;-145.37;71.67
13486;BME280;6815;59.336;17.998;2023-02-22T07:41:08;52175.00;;;-145.37;71.53
13486;BME280;6815;59.336;17.998;2023-02-22T07:43:34;52188.97;;;-145.37;70.89
13486;BME280;6815;59.336;17.998;2023-02-22T07:46:00;52182.97;;;-145.37;70.72
13486;BME280;6815;59.336;17.998;2023-02-22T07:48:28;52169.00;;;-145.37;70.95
13486;BME280;6815;59.336;17.998;2023-02-22T07:50:54;52182.97;;;-145.37;70.40
13486;BME280;6815;59.336;17.998;2023-02-22T07:53:24;52206.94;;;-145.37;71.15
13486;BME280;6815;59.336;17.998;2023-02-22T07:55:49;52184.97;;;-145.37;70.65
13486;BME280;6815;59.336;17.998;2023-02-22T07:58:17;52188.97;;;-145.37;70.11
13486;BME280;6815;59.336;17.998;2023-02-22T08:00:44;52198.94;;;-145.37;69.81
13486;BME280;6815;59.336;17.998;2023-02-22T08:03:13;52206.94;;;-145.37;69.36
13486;BME280;6815;59.336;17.998;2023-02-22T08:05:41;52163.00;;;-145.37;68.63
13486;BME280;6815;59.336;17.998;2023-02-22T08:08:07;52186.97;;;-145.37;68.84
13486;BME280;6815;59.336;17.998;2023-02-22T08:10:33;52180.97;;;-145.37;68.51
13486;BME280;6815;59.336;17.998;2023-02-22T08:13:00;52198.94;;;-145.37;67.92
13486;BME280;6815;59.336;17.998;2023-02-22T08:17:52;52180.97;;;-145.37;68.44
13486;BME280;6815;59.336;17.998;2023-02-22T08:20:18;52178.97;;;-145.37;68.52
13486;BME280;6815;59.336;17.998;2023-02-22T08:22:44;52196.94;;;-145.37;68.60
13486;BME280;6815;59.336;17.998;2023-02-22T08:25:11;52196.94;;;-145.37;67.48
13486;BME280;6815;59.336;17.998;2023-02-22T08:27:37;52186.97;;;-145.37;67.21
13486;BME280;6815;59.336;17.998;2023-02-22T08:30:03;52206.94;;;-145.37;67.35
13486;BME280;6815;59.336;17.998;2023-02-22T08:32:28;52226.91;;;-145.37;66.77
13486;BME280;6815;59.336;17.998;2023-02-22T08:34:54;52218.91;;;-145.37;65.89
13486;BME280;6815;59.336;17.998;2023-02-22T08:37:19;52192.97;;;-145.37;66.11
13486;BME280;6815;59.336;17.998;2023-02-22T08:39:45;52194.94;;;-145.37;65.26
13486;BME280;6815;59.336;17.998;2023-02-22T08:42:10;52200.94;;;-145.37;64.89
13486;BME280;6815;59.336;17.998;2023-02-22T08:44:37;52212.91;;;-145.37;64.67
13486;BME280;6815;59.336;17.998;2023-02-22T08:47:05;52222.91;;;-145.37;62.97
13486;BME280;6815;59.336;17.998;2023-02-22T08:49:31;52188.97;;;-145.37;62.81
13486;BME280;6815;59.336;17.998;2023-02-22T08:51:57;52186.97;;;-145.37;62.58
13486;BME280;6815;59.336;17.998;2023-02-22T08:54:22;52192.97;;;-145.37;62.57
13486;BME280;6815;59.336;17.998;2023-02-22T08:56:49;52175.00;;;-145.37;62.00
13486;BME280;6815;59.336;17.998;2023-02-22T08:59:16;52232.88;;;-145.37;62.03
13486;BME280;6815;59.336;17.998;2023-02-22T09:01:42;52216.91;;;-145.37;62.00
13486;BME280;6815;59.336;17.998;2023-02-22T09:04:08;52208.94;;;-145.37;62.35
13486;BME280;6815;59.336;17.998;2023-02-22T09:06:34;52198.94;;;-145.37;62.46
13486;BME280;6815;59.336;17.998;2023-02-22T09:09:00;52169.00;;;-145.37;63.17
13486;BME280;6815;59.336;17.998;2023-02-22T09:11:26;52200.94;;;-145.37;63.51
13486;BME280;6815;59.336;17.998;2023-02-22T09:13:53;52186.97;;;-145.37;63.77
13486;BME280;6815;59.336;17.998;2023-02-22T09:16:18;52216.91;;;-145.37;63.46
13486;BME280;6815;59.336;17.998;2023-02-22T09:18:44;52186.97;;;-145.37;63.43
13486;BME280;6815;59.336;17.998;2023-02-22T09:21:10;52198.94;;;-145.37;63.58
13486;BME280;6815;59.336;17.998;2023-02-22T09:23:36;52198.94;;;-145.37;63.07
13486;BME280;6815;59.336;17.998;2023-02-22T09:26:02;52173.00;;;-145.37;62.50
13486;BME280;6815;59.336;17.998;2023-02-22T09:28:28;52196.94;;;-145.37;62.04
13486;BME280;6815;59.336;17.998;2023-02-22T09:30:54;52220.91;;;-145.37;61.58
13486;BME280;6815;59.336;17.998;2023-02-22T09:33:20;52214.91;;;-145.37;60.78
13486;BME280;6815;59.336;17.998;2023-02-22T09:35:47;52224.91;;;-145.37;60.52
13486;BME280;6815;59.336;17.998;2023-02-22T09:38:23;52192.97;;;-145.37;60.35
13486;BME280;6815;59.336;17.998;2023-02-22T09:40:55;52210.91;;;-145.37;61.43
13486;BME280;6815;59.336;17.998;2023-02-22T09:43:49;52147.03;;;-145.37;60.88
13486;BME280;6815;59.336;17.998;2023-02-22T09:46:36;52214.91;;;-145.37;61.24
13486;BME280;6815;59.336;17.998;2023-02-22T09:49:22;52188.97;;;-145.37;60.70
13486;BME280;6815;59.336;17.998;2023-02-22T09:52:20;52228.88;;;-145.37;60.44
13486;BME280;6815;59.336;17.998;2023-02-22T09:55:40;52175.00;;;-145.37;60.84
13486;BME280;6815;59.336;17.998;2023-02-22T09:57:41;52218.91;;;-145.37;60.85
13486;BME280;6815;59.336;17.998;2023-02-22T10:00:17;52272.81;;;-145.37;61.33
13486;BME280;6815;59.336;17.998;2023-02-22T10:03:02;52244.84;;;-145.37;60.59
13486;BME280;6815;59.336;17.998;2023-02-22T10:05:37;52230.88;;;-145.37;60.15
13486;BME280;6815;59.336;17.998;2023-02-22T10:08:11;52284.78;;;-145.37;59.92
13486;BME280;6815;59.336;17.998;2023-02-22T10:10:47;52206.94;;;-145.37;60.30
13486;BME280;6815;59.336;17.998;2023-02-22T10:13:24;52194.94;;;-145.37;60.49
13486;BME280;6815;59.336;17.998;2023-02-22T10:22:03;52202.94;;;-145.37;60.63
13486;BME280;6815;59.336;17.998;2023-02-22T10:25:01;52194.94;;;-145.37;59.69
13486;BME280;6815;59.336;17.998;2023-02-22T10:27:37;52196.94;;;-145.37;59.10
13486;BME280;6815;59.336;17.998;2023-02-22T10:30:16;52218.91;;;-145.37;59.69
13486;BME280;6815;59.336;17.998;2023-02-22T10:32:45;52218.91;;;-145.37;59.59
13486;BME280;6815;59.336;17.998;2023-02-22T10:35:24;52208.94;;;-145.37;58.66
13486;BME280;6815;59.336;17.998;2023-02-22T10:37:55;52167.00;;;-145.37;58.01
13486;BME280;6815;59.336;17.998;2023-02-22T10:40:23;52190.97;;;-145.37;57.93
13486;BME280;6815;59.336;17.998;2023-02-22T10:42:58;52196.94;;;-145.37;58.44
13486;BME280;6815;59.336;17.998;2023-02-22T10:45:29;52228.88;;;-145.37;58.44
13486;BME280;6815;59.336;17.998;2023-02-22T10:48:04;52208.94;;;-145.37;58.48
13486;BME280;6815;59.336;17.998;2023-02-22T10:50:34;52194.94;;;-145.37;58.97
13486;BME280;6815;59.336;17.998;2023-02-22T10:53:01;52186.97;;;-145.37;59.02
13486;BME280;6815;59.336;17.998;2023-02-22T10:55:27;52165.00;;;-145.37;59.12
13486;BME280;6815;59.336;17.998;2023-02-22T10:58:01;52169.00;;;-145.37;59.49
13486;BME280;6815;59.336;17.998;2023-02-22T11:00:32;52169.00;;;-145.37;59.17
13486;BME280;6815;59.336;17.998;2023-02-22T11:03:18;52240.88;;;-145.37;59.34
13486;BME280;6815;59.336;17.998;2023-02-22T11:05:45;52220.91;;;-145.37;59.82
13486;BME280;6815;59.336;17.998;2023-02-22T11:10:52;52192.97;;;-145.37;59.99
13486;BME280;6815;59.336;17.998;2023-02-22T11:13:37;52212.91;;;-145.37;60.11
13486;BME280;6815;59.336;17.998;2023-02-22T11:19:44;52175.00;;;-145.37;59.67
13486;BME280;6815;59.336;17.998;2023-02-22T11:22:39;52204.94;;;-145.37;60.52
13486;BME280;6815;59.336;17.998;2023-02-22T11:24:53;52208.94;;;-145.37;60.59
13486;BME280;6815;59.336;17.998;2023-02-22T11:27:30;52218.91;;;-145.37;61.15
13486;BME280;6815;59.336;17.998;2023-02-22T11:32:32;52194.94;;;-145.37;59.39
13486;BME280;6815;59.336;17.998;2023-02-22T11:35:18;52216.91;;;-145.37;57.39
13486;BME280;6815;59.336;17.998;2023-02-22T11:37:43;52192.97;;;-145.37;57.08
13486;BME280;6815;59.336;17.998;2023-02-22T11:42:36;52192.97;;;-145.37;56.58
13486;BME280;6815;59.336;17.998;2023-02-22T11:45:21;52186.97;;;-145.37;56.96
13486;BME280;6815;59.336;17.998;2023-02-22T11:47:57;52216.91;;;-145.37;56.88
13486;BME280;6815;59.336;17.998;2023-02-22T11:56:33;52186.97;;;-145.37;55.74
13486;BME280;6815;59.336;17.998;2023-02-22T12:01:55;52224.91;;;-145.37;55.50
13486;BME280;6815;59.336;17.998;2023-02-22T12:04:42;52238.88;;;-145.37;56.98
13486;BME280;6815;59.336;17.998;2023-02-22T12:07:39;52188.97;;;-145.37;57.71
13486;BME280;6815;59.336;17.998;2023-02-22T12:10:32;52210.91;;;-145.37;58.26
13486;BME280;6815;59.336;17.998;2023-02-22T12:13:32;52194.94;;;-145.37;58.14
13486;BME280;6815;59.336;17.998;2023-02-22T12:16:12;52171.00;;;-145.37;58.14
13486;BME280;6815;59.336;17.998;2023-02-22T12:18:47;52256.84;;;-145.37;58.14
13486;BME280;6815;59.336;17.998;2023-02-22T12:21:23;52192.97;;;-145.37;58.19
13486;BME280;6815;59.336;17.998;2023-02-22T12:23:55;52204.94;;;-145.37;57.87
13486;BME280;6815;59.336;17.998;2023-02-22T12:26:39;52216.91;;;-145.37;56.54
13486;BME280;6815;59.336;17.998;2023-02-22T12:29:07;52202.94;;;-145.37;56.21
13486;BME280;6815;59.336;17.998;2023-02-22T12:31:41;52198.94;;;-145.37;56.45
13486;BME280;6815;59.336;17.998;2023-02-22T12:36:48;52214.91;;;-145.37;56.51
13486;BME280;6815;59.336;17.998;2023-02-22T12:46:05;52204.94;;;-145.37;58.15
13486;BME280;6815;59.336;17.998;2023-02-22T12:54:00;52218.91;;;-145.37;55.58
13486;BME280;6815;59.336;17.998;2023-02-22T12:57:07;52232.88;;;-145.37;56.03
13486;BME280;6815;59.336;17.998;2023-02-22T12:59:40;52198.94;;;-145.37;55.20
13486;BME280;6815;59.336;17.998;2023-02-22T13:04:47;52198.94;;;-145.37;56.45
13486;BME280;6815;59.336;17.998;2023-02-22T13:07:39;52180.97;;;-145.37;56.83
13486;BME280;6815;59.336;17.998;2023-02-22T13:10:26;52200.94;;;-145.37;56.41
13486;BME280;6815;59.336;17.998;2023-02-22T13:21:02;52220.91;;;-145.37;56.01
13486;BME280;6815;59.336;17.998;2023-02-22T13:29:04;52210.91;;;-145.37;55.19
13486;BME280;6815;59.336;17.998;2023-02-22T13:39:53;52214.91;;;-145.37;55.01
13486;BME280;6815;59.336;17.998;2023-02-22T13:51:37;52208.94;;;-145.37;53.68
13486;BME280;6815;59.336;17.998;2023-02-22T13:53:47;52240.88;;;-145.37;54.24
13486;BME280;6815;59.336;17.998;2023-02-22T13:56:14;52238.88;;;-145.37;54.54
13486;BME280;6815;59.336;17.998;2023-02-22T13:58:53;52216.91;;;-145.37;54.99
13486;BME280;6815;59.336;17.998;2023-02-22T14:01:35;52220.91;;;-145.37;55.10
13486;BME280;6815;59.336;17.998;2023-02-22T14:06:58;52240.88;;;-145.37;55.36
13486;BME280;6815;59.336;17.998;2023-02-22T14:09:48;52206.94;;;-145.37;55.61
13486;BME280;6815;59.336;17.998;2023-02-22T14:17:46;52177.00;;;-145.37;55.26
13486;BME280;6815;59.336;17.998;2023-02-22T14:22:45;52208.94;;;-145.37;55.68
13486;BME280;6815;59.336;17.998;2023-02-22T14:25:47;52210.91;;;-145.37;57.11
13486;BME280;6815;59.336;17.998;2023-02-22T14:28:36;52206.94;;;-145.37;57.79
13486;BME280;6815;59.336;17.998;2023-02-22T14:31:25;52210.91;;;-145.37;57.75
13486;BME280;6815;59.336;17.998;2023-02-22T14:34:11;52180.97;;;-145.37;57.43
13486;BME280;6815;59.336;17.998;2023-02-22T14:39:36;52230.88;;;-145.37;56.74
13486;BME280;6815;59.336;17.998;2023-02-22T14:50:24;52186.97;;;-145.37;56.76
13486;BME280;6815;59.336;17.998;2023-02-22T14:53:02;52202.94;;;-145.37;56.25
13486;BME280;6815;59.336;17.998;2023-02-22T14:55:36;52218.91;;;-145.37;55.28
13486;BME280;6815;59.336;17.998;2023-02-22T14:58:08;52139.06;;;-145.37;55.13